Check out our new BloomSky Weather System.

Active alerts

Houston, TX
  Details for Houston, TX Dense Fog Advisory


Thunder radar  blitzortung!


Rain radar more information rain snow radar


Visit our other weather sites:

Template documentation
and downloads

And another site



Weather Underground History page Text

Daily Summary for June 24, 2017 Units:  Metric    English   Both
« Previous Day
Next Day »
Daily Weekly Monthly Yearly Custom
  High: Low: Average:
Temperature: 28.7 °C 23.9 °C 26.4 °C
Dew Point: 25.9 °C 22.7 °C 24.8 °C
Humidity: 99 % 81 % 91 %
Wind Speed: 16.1 km/h 0 km/h 1.9 km/h
Wind Gust: 27.4 km/h - -
Wind:- - SW
Pressure: 1018.8 hPa 1012.4 hPa -
Precipitation: 21.84 mm    
Historical Graphs
 
 
Tabular Data for June 24, 2017
Time Temperature Dew Point Pressure Wind Wind Speed Wind Gust Humidity Rainfall Rate (Hourly)
00:02 27.9 °C 25.5 °C 1012.4 hPa SE 1.6 km/h 9.7 km/h 87 % 0 mm
00:07 27.9 °C 25.5 °C 1012.4 hPa SSE 6.4 km/h 9.7 km/h 87 % 0 mm
00:12 27.9 °C 25.7 °C 1012.8 hPa SE 4.8 km/h 8 km/h 88 % 0 mm
00:17 27.9 °C 25.7 °C 1012.8 hPa SE 6.4 km/h 8 km/h 88 % 0 mm
00:18 27.9 °C 25.7 °C 1012.8 hPa SE 4.8 km/h 8 km/h 88 % 0 mm
00:23 27.8 °C 25.6 °C 1012.8 hPa SSE 3.2 km/h 8 km/h 88 % 0 mm
00:28 27.8 °C 25.6 °C 1012.8 hPa SE 9.7 km/h 9.7 km/h 88 % 0 mm
00:29 27.8 °C 25.6 °C 1012.8 hPa SE 9.7 km/h 9.7 km/h 88 % 0 mm
00:35 27.8 °C 25.6 °C 1012.8 hPa SSE 4.8 km/h 12.9 km/h 88 % 0 mm
00:40 27.8 °C 25.6 °C 1013.1 hPa South 3.2 km/h 12.9 km/h 88 % 0 mm
00:45 27.7 °C 25.5 °C 1013.1 hPa SE 8 km/h 12.9 km/h 88 % 0 mm
00:50 27.7 °C 25.7 °C 1013.1 hPa South 3.2 km/h 12.9 km/h 89 % 0 mm
00:55 27.7 °C 25.7 °C 1012.8 hPa ESE 3.2 km/h 11.3 km/h 89 % 0 mm
01:00 27.6 °C 25.6 °C 1012.8 hPa SE 3.2 km/h 11.3 km/h 89 % 0 mm
01:05 27.6 °C 25.6 °C 1012.8 hPa SE 4.8 km/h 8 km/h 89 % 0 mm
01:10 27.6 °C 25.6 °C 1012.8 hPa SE 4.8 km/h 8 km/h 89 % 0 mm
01:15 27.6 °C 25.8 °C 1013.1 hPa SE 3.2 km/h 6.4 km/h 90 % 0 mm
01:20 27.5 °C 25.7 °C 1013.1 hPa SSE 3.2 km/h 6.4 km/h 90 % 0 mm
01:25 27.4 °C 25.6 °C 1013.1 hPa South 1.6 km/h 9.7 km/h 90 % 0 mm
01:30 27.4 °C 25.6 °C 1013.1 hPa SE 3.2 km/h 9.7 km/h 90 % 0 mm
01:35 27.4 °C 25.6 °C 1013.1 hPa SSE 3.2 km/h 9.7 km/h 90 % 0 mm
01:40 27.4 °C 25.6 °C 1013.1 hPa SSE 4.8 km/h 6.4 km/h 90 % 0 mm
01:45 27.3 °C 25.5 °C 1013.1 hPa ESE 1.6 km/h 6.4 km/h 90 % 0 mm
01:50 27.3 °C 25.5 °C 1013.4 hPa Calm   6.4 km/h 90 % 0 mm
01:55 27.2 °C 25.4 °C 1013.4 hPa Calm   6.4 km/h 90 % 0 mm
02:00 27.1 °C 25.3 °C 1013.4 hPa Calm   3.2 km/h 90 % 0 mm
02:05 27 °C 25.4 °C 1013.4 hPa Calm   1.6 km/h 91 % 0 mm
02:10 26.9 °C 25.3 °C 1013.4 hPa Calm   1.6 km/h 91 % 0 mm
02:15 27 °C 25.6 °C 1013.4 hPa Calm   1.6 km/h 92 % 0 mm
02:20 26.9 °C 25.5 °C 1013.8 hPa Calm   1.6 km/h 92 % 0 mm
02:25 26.8 °C 25.4 °C 1013.8 hPa Calm   1.6 km/h 92 % 0 mm
02:30 26.8 °C 25.4 °C 1013.4 hPa Calm   1.6 km/h 92 % 0 mm
02:35 26.8 °C 25.4 °C 1013.4 hPa Calm   1.6 km/h 92 % 0 mm
02:40 26.8 °C 25.6 °C 1013.1 hPa Calm   1.6 km/h 93 % 0 mm
02:45 26.8 °C 25.6 °C 1013.1 hPa Calm   1.6 km/h 93 % 0 mm
02:50 26.8 °C 25.6 °C 1013.1 hPa Calm   3.2 km/h 93 % 0 mm
02:55 26.9 °C 25.7 °C 1013.1 hPa Calm   3.2 km/h 93 % 0 mm
03:00 26.9 °C 25.7 °C 1013.1 hPa Calm   3.2 km/h 93 % 0 mm
03:05 26.9 °C 25.7 °C 1013.1 hPa East 1.6 km/h 1.6 km/h 93 % 0 mm
03:10 26.9 °C 25.7 °C 1013.1 hPa Calm   1.6 km/h 93 % 0 mm
03:15 26.9 °C 25.7 °C 1013.4 hPa Calm   1.6 km/h 93 % 0 mm
03:20 26.9 °C 25.9 °C 1013.4 hPa Calm   1.6 km/h 94 % 0 mm
03:25 26.9 °C 25.9 °C 1013.1 hPa East 1.6 km/h 3.2 km/h 94 % 0 mm
03:30 26.9 °C 25.9 °C 1013.1 hPa Calm   3.2 km/h 94 % 0 mm
03:35 26.8 °C 25.8 °C 1013.1 hPa Calm   3.2 km/h 94 % 0 mm
03:40 26.7 °C 25.7 °C 1013.1 hPa Calm   1.6 km/h 94 % 0 mm
03:45 26.7 °C 25.7 °C 1013.1 hPa Calm     94 % 0 mm
03:50 26.7 °C 25.7 °C 1013.1 hPa Calm     94 % 0 mm
03:55 26.6 °C 25.6 °C 1013.1 hPa Calm     94 % 0 mm
04:00 26.7 °C 25.8 °C 1013.1 hPa Calm     95 % 0 mm
04:05 26.7 °C 25.8 °C 1013.1 hPa Calm     95 % 0 mm
04:10 26.7 °C 25.8 °C 1013.1 hPa Calm     95 % 0 mm
04:15 26.8 °C 25.9 °C 1013.1 hPa Calm   1.6 km/h 95 % 0 mm
04:20 26.8 °C 25.9 °C 1013.1 hPa Calm   1.6 km/h 95 % 0 mm
04:25 26.8 °C 25.9 °C 1013.4 hPa Calm   1.6 km/h 95 % 0 mm
04:30 26.8 °C 25.9 °C 1013.4 hPa Calm   1.6 km/h 95 % 0 mm
04:35 26.8 °C 25.9 °C 1013.4 hPa Calm   3.2 km/h 95 % 0 mm
04:40 26.8 °C 25.9 °C 1013.4 hPa Calm   3.2 km/h 95 % 0 mm
04:45 26.8 °C 25.9 °C 1013.4 hPa Calm   3.2 km/h 95 % 0 mm
04:50 26.8 °C 25.9 °C 1013.4 hPa Calm   3.2 km/h 95 % 0 mm
04:55 26.7 °C 25.8 °C 1013.8 hPa NNW 1.6 km/h 1.6 km/h 95 % 0 mm
05:00 26.7 °C 25.8 °C 1013.8 hPa Calm   3.2 km/h 95 % 0 mm
05:05 26.6 °C 25.7 °C 1014.1 hPa Calm   3.2 km/h 95 % 0 mm
05:10 26.5 °C 25.6 °C 1014.1 hPa Calm   3.2 km/h 95 % 0 mm
05:15 26.4 °C 25.5 °C 1014.1 hPa Calm   3.2 km/h 95 % 0 mm
05:21 26.4 °C 25.5 °C 1013.8 hPa Calm   1.6 km/h 95 % 0 mm
05:26 26.3 °C 25.4 °C 1013.8 hPa North 1.6 km/h 1.6 km/h 95 % 0 mm
05:27 26.3 °C 25.4 °C 1013.8 hPa NW 1.6 km/h 1.6 km/h 95 % 0 mm
05:32 26.3 °C 25.4 °C 1014.1 hPa East 1.6 km/h 1.6 km/h 95 % 0 mm
05:37 26.3 °C 25.6 °C 1014.1 hPa Calm   3.2 km/h 96 % 0 mm
05:42 26.2 °C 25.3 °C 1014.1 hPa Calm   3.2 km/h 95 % 0 mm
05:47 26.2 °C 25.5 °C 1013.8 hPa Calm   3.2 km/h 96 % 0 mm
05:52 26.2 °C 25.5 °C 1014.4 hPa Calm   3.2 km/h 96 % 0 mm
05:57 26.2 °C 25.5 °C 1014.4 hPa SSE 6.4 km/h 6.4 km/h 96 % 0 mm
06:02 25.8 °C 24.8 °C 1014.4 hPa SSE 6.4 km/h 16.1 km/h 94 % 0 mm
06:07 24.9 °C 23.5 °C 1014.4 hPa East 8 km/h 20.9 km/h 92 % 0 mm
06:12 24.5 °C 22.9 °C 1014.4 hPa SSE 1.6 km/h 20.9 km/h 91 % 0 mm
06:17 24.3 °C 22.7 °C 1014.4 hPa SW 1.6 km/h 20.9 km/h 91 % 0 mm
06:22 24.3 °C 22.7 °C 1014.4 hPa Calm   17.7 km/h 91 % 0 mm
06:27 24.2 °C 22.8 °C 1014.4 hPa ESE 4.8 km/h 8 km/h 92 % 0 mm
06:32 24.2 °C 22.8 °C 1014.4 hPa Calm   8 km/h 92 % 0 mm
06:38 24.2 °C 22.8 °C 1014.4 hPa Calm   8 km/h 92 % 0 mm
06:43 24.3 °C 22.9 °C 1014.4 hPa Calm   8 km/h 92 % 0 mm
06:48 24.2 °C 22.8 °C 1014.4 hPa WSW 1.6 km/h 3.2 km/h 92 % 0 mm
06:53 24.2 °C 22.8 °C 1014.4 hPa West 1.6 km/h 3.2 km/h 92 % 0 mm
06:58 24.2 °C 22.8 °C 1014.4 hPa Calm   3.2 km/h 92 % 0 mm
07:03 24.3 °C 22.9 °C 1014.4 hPa NW 1.6 km/h 3.2 km/h 92 % 0 mm
07:08 24.4 °C 23 °C 1014.4 hPa NW 1.6 km/h 3.2 km/h 92 % 0 mm
07:13 24.5 °C 23.1 °C 1014.8 hPa Calm   3.2 km/h 92 % 0 mm
07:18 24.6 °C 23.2 °C 1014.8 hPa Calm   3.2 km/h 92 % 0 mm
07:23 24.7 °C 23.3 °C 1014.8 hPa Calm   3.2 km/h 92 % 0 mm
07:28 24.7 °C 23.1 °C 1014.8 hPa Calm   3.2 km/h 91 % 0 mm
07:33 24.8 °C 23.2 °C 1014.8 hPa NNW 1.6 km/h 3.2 km/h 91 % 0 mm
07:38 24.8 °C 23.2 °C 1014.4 hPa Calm   1.6 km/h 91 % 0 mm
07:43 24.9 °C 23.3 °C 1014.4 hPa Calm   1.6 km/h 91 % 0 mm
07:48 25.1 °C 23.5 °C 1014.4 hPa Calm   1.6 km/h 91 % 0 mm
07:53 25.2 °C 23.6 °C 1014.4 hPa Calm   1.6 km/h 91 % 0 mm
07:58 25.3 °C 23.7 °C 1014.8 hPa Calm   1.6 km/h 91 % 0 mm
08:03 25.4 °C 23.6 °C 1014.8 hPa Calm   1.6 km/h 90 % 0 mm
08:08 25.5 °C 23.7 °C 1014.8 hPa North 1.6 km/h 1.6 km/h 90 % 0 mm
08:13 25.6 °C 23.6 °C 1015.1 hPa Calm   3.2 km/h 89 % 0 mm
08:18 25.8 °C 23.8 °C 1015.5 hPa NW 1.6 km/h 3.2 km/h 89 % 0 mm
08:23 25.9 °C 23.9 °C 1015.5 hPa NW 3.2 km/h 4.8 km/h 89 % 0 mm
08:28 26.1 °C 24 °C 1015.5 hPa NNW 1.6 km/h 4.8 km/h 88 % 0 mm
08:33 26.2 °C 24.2 °C 1015.5 hPa NNW 1.6 km/h 4.8 km/h 89 % 0 mm
08:39 26.3 °C 24.3 °C 1015.8 hPa Calm   4.8 km/h 89 % 0 mm
08:44 26.3 °C 24.3 °C 1015.8 hPa South 3.2 km/h 4.8 km/h 89 % 0 mm
08:49 26.2 °C 24.2 °C 1016.1 hPa ESE 16.1 km/h 16.1 km/h 89 % 0 mm
08:54 25.7 °C 23.9 °C 1016.1 hPa SSW 6.4 km/h 19.3 km/h 90 % 0 mm
08:59 25.3 °C 23.9 °C 1016.1 hPa SE 4.8 km/h 27.4 km/h 92 % 1.52 mm
09:04 25.2 °C 24 °C 1016.1 hPa Calm   27.4 km/h 93 % 3.05 mm
09:09 24.9 °C 23.5 °C 1016.1 hPa NW 3.2 km/h 27.4 km/h 92 % 7.37 mm
09:14 24.7 °C 23.5 °C 1016.1 hPa ENE 1.6 km/h 9.7 km/h 93 % 11.94 mm
09:19 24.6 °C 23.6 °C 1016.5 hPa ENE 3.2 km/h 4.8 km/h 94 % 16.51 mm
09:24 24.4 °C 23.5 °C 1016.5 hPa NNW 3.2 km/h 4.8 km/h 95 % 18.54 mm
09:29 24.4 °C 23.7 °C 1016.8 hPa Calm   4.8 km/h 96 % 18.8 mm
09:34 24.3 °C 23.6 °C 1016.8 hPa East 3.2 km/h 6.4 km/h 96 % 19.05 mm
09:39 24.2 °C 23.5 °C 1016.8 hPa Calm   8 km/h 96 % 19.05 mm
09:44 24.2 °C 23.7 °C 1016.8 hPa Calm   8 km/h 97 % 19.05 mm
09:49 24.2 °C 23.7 °C 1016.8 hPa Calm   8 km/h 97 % 19.05 mm
09:54 24.4 °C 23.9 °C 1016.8 hPa SSE 3.2 km/h 4.8 km/h 97 % 18.8 mm
09:59 24.4 °C 24.1 °C 1016.8 hPa East 11.3 km/h 11.3 km/h 98 % 17.27 mm
10:04 24.5 °C 24.2 °C 1016.8 hPa SSE 4.8 km/h 11.3 km/h 98 % 16 mm
10:09 24.5 °C 24 °C 1016.8 hPa SE 3.2 km/h 11.3 km/h 97 % 11.68 mm
10:14 24.3 °C 23.8 °C 1016.8 hPa SE 4.8 km/h 11.3 km/h 97 % 6.6 mm
10:19 24.3 °C 24 °C 1016.8 hPa SSE 3.2 km/h 9.7 km/h 98 % 2.54 mm
10:24 24.3 °C 24 °C 1016.8 hPa SSE 3.2 km/h 9.7 km/h 98 % 0.76 mm
10:29 24.4 °C 24.1 °C 1017.2 hPa SE 3.2 km/h 9.7 km/h 98 % 0.51 mm
10:34 24.3 °C 24 °C 1017.2 hPa ESE 1.6 km/h 8 km/h 98 % 0.25 mm
10:39 24.3 °C 24 °C 1017.2 hPa SE 6.4 km/h 8 km/h 98 % 0.25 mm
10:44 24.3 °C 24 °C 1017.2 hPa SSE 9.7 km/h 11.3 km/h 98 % 0.51 mm
10:49 24.2 °C 23.9 °C 1017.5 hPa East 9.7 km/h 11.3 km/h 98 % 0.76 mm
10:54 24.1 °C 23.8 °C 1017.5 hPa East 4.8 km/h 12.9 km/h 98 % 1.02 mm
10:59 24.1 °C 23.8 °C 1017.5 hPa ENE 3.2 km/h 12.9 km/h 98 % 1.27 mm
11:04 23.9 °C 23.6 °C 1017.5 hPa East 4.8 km/h 12.9 km/h 98 % 1.52 mm
11:09 23.9 °C 23.6 °C 1017.8 hPa ESE 1.6 km/h 9.7 km/h 98 % 1.78 mm
11:14 23.9 °C 23.6 °C 1017.8 hPa Calm   9.7 km/h 98 % 1.78 mm
11:19 23.9 °C 23.6 °C 1017.8 hPa Calm   9.7 km/h 98 % 2.03 mm
11:24 24 °C 23.7 °C 1017.8 hPa Calm   8 km/h 98 % 1.78 mm
11:29 24.1 °C 23.8 °C 1017.8 hPa East 1.6 km/h 4.8 km/h 98 % 1.78 mm
11:34 24.1 °C 23.8 °C 1017.8 hPa SE 1.6 km/h 3.2 km/h 98 % 1.78 mm
11:39 24.1 °C 23.8 °C 1017.8 hPa Calm   3.2 km/h 98 % 1.78 mm
11:44 24.1 °C 23.8 °C 1017.8 hPa ESE 1.6 km/h 3.2 km/h 98 % 1.78 mm
11:49 24.2 °C 23.9 °C 1017.8 hPa SE 3.2 km/h 4.8 km/h 98 % 1.78 mm
11:54 24.2 °C 23.9 °C 1017.8 hPa Calm   4.8 km/h 98 % 1.52 mm
11:59 24.5 °C 24.3 °C 1017.8 hPa Calm   4.8 km/h 99 % 1.27 mm
12:04 24.7 °C 24.5 °C 1017.5 hPa Calm   4.8 km/h 99 % 1.02 mm
12:09 24.9 °C 24.6 °C 1017.5 hPa Calm   3.2 km/h 98 % 0.76 mm
12:14 24.9 °C 24.6 °C 1017.5 hPa SSW 3.2 km/h 3.2 km/h 98 % 0.76 mm
12:19 24.9 °C 24.6 °C 1017.5 hPa South 1.6 km/h 3.2 km/h 98 % 0.51 mm
12:24 24.9 °C 24.6 °C 1017.5 hPa Calm   4.8 km/h 98 % 0.51 mm
12:29 25.1 °C 24.8 °C 1017.5 hPa Calm   4.8 km/h 98 % 0.51 mm
12:34 25.2 °C 24.9 °C 1017.8 hPa Calm   4.8 km/h 98 % 0.51 mm
12:39 25.2 °C 24.9 °C 1017.8 hPa Calm   4.8 km/h 98 % 0.25 mm
12:44 25.2 °C 24.9 °C 1017.8 hPa Calm   4.8 km/h 98 % 0.25 mm
12:49 25.3 °C 25 °C 1018.2 hPa WNW 1.6 km/h 4.8 km/h 98 % 0 mm
12:54 25.3 °C 24.8 °C 1018.2 hPa West 1.6 km/h 4.8 km/h 97 % 0 mm
12:59 25.5 °C 25.2 °C 1018.2 hPa Calm   4.8 km/h 98 % 0 mm
13:04 25.6 °C 25.1 °C 1018.2 hPa Calm   4.8 km/h 97 % 0 mm
13:09 25.7 °C 25.2 °C 1018.2 hPa Calm   4.8 km/h 97 % 0.25 mm
13:14 25.7 °C 25 °C 1017.8 hPa Calm   3.2 km/h 96 % 0.25 mm
13:19 25.4 °C 24.7 °C 1017.8 hPa Calm   4.8 km/h 96 % 0.25 mm
13:20 25.4 °C 24.7 °C 1017.8 hPa West 1.6 km/h 6.4 km/h 96 % 0.25 mm
13:25 25.5 °C 24.8 °C 1017.8 hPa WNW 1.6 km/h 6.4 km/h 96 % 0.25 mm
13:30 25.4 °C 24.5 °C 1017.8 hPa WNW 1.6 km/h 6.4 km/h 95 % 0.25 mm
13:35 25.4 °C 24.7 °C 1017.8 hPa WNW 1.6 km/h 6.4 km/h 96 % 0.25 mm
13:40 25.7 °C 25 °C 1017.8 hPa WSW 4.8 km/h 6.4 km/h 96 % 0.25 mm
13:45 25.8 °C 25.1 °C 1017.8 hPa NNW 1.6 km/h 6.4 km/h 96 % 0.25 mm
13:50 25.9 °C 25.2 °C 1017.8 hPa NW 4.8 km/h 6.4 km/h 96 % 0.25 mm
13:55 25.9 °C 25 °C 1017.8 hPa NW 3.2 km/h 9.7 km/h 95 % 0.25 mm
14:00 26.1 °C 25.4 °C 1018.2 hPa WSW 1.6 km/h 9.7 km/h 96 % 0.25 mm
14:05 26.2 °C 25.3 °C 1018.2 hPa Calm   9.7 km/h 95 % 0 mm
14:10 26.2 °C 25.2 °C 1017.8 hPa WNW 4.8 km/h 6.4 km/h 94 % 0 mm
14:15 26.3 °C 25.1 °C 1017.8 hPa NW 4.8 km/h 9.7 km/h 93 % 0 mm
14:20 26.3 °C 25.3 °C 1017.8 hPa WNW 3.2 km/h 9.7 km/h 94 % 0 mm
14:25 26.4 °C 25 °C 1017.8 hPa NNW 3.2 km/h 9.7 km/h 92 % 0 mm
14:30 26.5 °C 25.1 °C 1017.5 hPa NNW 3.2 km/h 8 km/h 92 % 0 mm
14:35 26.6 °C 25 °C 1017.5 hPa NW 3.2 km/h 8 km/h 91 % 0 mm
14:40 26.5 °C 24.9 °C 1017.5 hPa West 6.4 km/h 12.9 km/h 91 % 0 mm
14:45 26.3 °C 24.7 °C 1017.5 hPa NW 6.4 km/h 12.9 km/h 91 % 0 mm
14:51 26.2 °C 24.6 °C 1017.2 hPa WNW 6.4 km/h 17.7 km/h 91 % 0 mm
14:56 26.2 °C 24.6 °C 1017.2 hPa WNW 4.8 km/h 17.7 km/h 91 % 0 mm
15:01 26.3 °C 24.5 °C 1017.2 hPa NNW 8 km/h 17.7 km/h 90 % 0 mm
15:06 26.3 °C 24.5 °C 1017.2 hPa NW 3.2 km/h 12.9 km/h 90 % 0 mm
15:11 26.2 °C 24.4 °C 1017.2 hPa North 6.4 km/h 12.9 km/h 90 % 0 mm
15:16 26.3 °C 24.5 °C 1017.2 hPa WNW 6.4 km/h 12.9 km/h 90 % 0 mm
15:21 26.2 °C 24.2 °C 1017.2 hPa NW 4.8 km/h 12.9 km/h 89 % 0 mm
15:26 26.2 °C 24.2 °C 1016.8 hPa NNW 3.2 km/h 11.3 km/h 89 % 0 mm
15:31 26.4 °C 24.4 °C 1016.8 hPa NNW 4.8 km/h 11.3 km/h 89 % 0 mm
15:36 26.6 °C 24.6 °C 1016.8 hPa North 1.6 km/h 11.3 km/h 89 % 0 mm
15:41 26.8 °C 24.6 °C 1016.8 hPa Calm   11.3 km/h 88 % 0 mm
15:46 27 °C 24.8 °C 1016.5 hPa North 1.6 km/h 11.3 km/h 88 % 0 mm
15:51 27.1 °C 24.6 °C 1016.5 hPa NW 3.2 km/h 8 km/h 86 % 0 mm
15:56 27 °C 24.5 °C 1016.1 hPa North 4.8 km/h 8 km/h 86 % 0 mm
16:01 27.2 °C 24.8 °C 1016.1 hPa NW 1.6 km/h 6.4 km/h 87 % 0 mm
16:06 27.2 °C 24.7 °C 1016.1 hPa NNW 1.6 km/h 6.4 km/h 86 % 0 mm
16:11 27.3 °C 24.7 °C 1016.1 hPa Calm   8 km/h 86 % 0 mm
16:16 27.5 °C 24.9 °C 1016.1 hPa NNW 3.2 km/h 8 km/h 86 % 0 mm
16:21 27.7 °C 24.9 °C 1015.8 hPa Calm   8 km/h 85 % 0 mm
16:26 27.9 °C 24.9 °C 1015.8 hPa Calm   6.4 km/h 84 % 0 mm
16:31 28.2 °C 24.8 °C 1015.8 hPa NNW 4.8 km/h 6.4 km/h 82 % 0 mm
16:36 28.1 °C 24.9 °C 1015.8 hPa NNW 1.6 km/h 6.4 km/h 83 % 0 mm
16:41 28.2 °C 25.2 °C 1015.8 hPa ENE 3.2 km/h 6.4 km/h 84 % 0 mm
16:46 28.2 °C 24.8 °C 1015.8 hPa NW 3.2 km/h 6.4 km/h 82 % 0 mm
16:51 28.4 °C 25.2 °C 1015.5 hPa NNW 4.8 km/h 6.4 km/h 83 % 0 mm
16:56 28.6 °C 25 °C 1015.5 hPa ENE 4.8 km/h 6.4 km/h 81 % 0 mm
17:01 28.4 °C 25.2 °C 1015.5 hPa ENE 1.6 km/h 6.4 km/h 83 % 0 mm
17:06 28.4 °C 25 °C 1015.1 hPa North 8 km/h 8 km/h 82 % 0 mm
17:11 28.4 °C 25.2 °C 1015.1 hPa Calm   8 km/h 83 % 0 mm
17:16 28.4 °C 25.2 °C 1015.1 hPa NE 1.6 km/h 8 km/h 83 % 0 mm
17:21 28.6 °C 25.2 °C 1015.1 hPa North 3.2 km/h 8 km/h 82 % 0 mm
17:26 28.6 °C 25.2 °C 1015.1 hPa ENE 3.2 km/h 11.3 km/h 82 % 0 mm
17:31 28.6 °C 25.2 °C 1015.5 hPa NNW 1.6 km/h 11.3 km/h 82 % 0 mm
17:36 28.6 °C 25.2 °C 1015.1 hPa NNW 4.8 km/h 11.3 km/h 82 % 0 mm
17:41 28.5 °C 25.1 °C 1015.1 hPa NNW 4.8 km/h 8 km/h 82 % 0 mm
17:46 28.4 °C 25.2 °C 1015.1 hPa NW 3.2 km/h 9.7 km/h 83 % 0 mm
17:51 28.4 °C 25.2 °C 1014.8 hPa North 8 km/h 9.7 km/h 83 % 0 mm
17:56 28.4 °C 25.2 °C 1014.8 hPa NNW 4.8 km/h 12.9 km/h 83 % 0 mm
17:58 28.3 °C 25.1 °C 1014.8 hPa NW 3.2 km/h 12.9 km/h 83 % 0 mm
18:03 28.3 °C 25.3 °C 1014.8 hPa East 1.6 km/h 12.9 km/h 84 % 0 mm
18:08 28.4 °C 25.2 °C 1014.8 hPa Calm   12.9 km/h 83 % 0 mm
18:13 28.6 °C 25.4 °C 1014.8 hPa East 1.6 km/h 8 km/h 83 % 0 mm
18:18 28.5 °C 25.3 °C 1014.8 hPa Calm   9.7 km/h 83 % 0 mm
18:23 28.6 °C 25.6 °C 1014.8 hPa North 1.6 km/h 9.7 km/h 84 % 0 mm
18:28 28.6 °C 25.4 °C 1014.8 hPa NNW 3.2 km/h 9.7 km/h 83 % 0 mm
18:33 28.6 °C 25.2 °C 1014.8 hPa East 1.6 km/h 6.4 km/h 82 % 0 mm
18:38 28.6 °C 25.2 °C 1014.8 hPa NNW 1.6 km/h 8 km/h 82 % 0 mm
18:43 28.6 °C 25.2 °C 1015.1 hPa Calm   8 km/h 82 % 0 mm
18:48 28.7 °C 25.3 °C 1014.8 hPa Calm   8 km/h 82 % 0 mm
18:53 28.7 °C 25.3 °C 1015.1 hPa North 1.6 km/h 6.4 km/h 82 % 0 mm
18:58 28.7 °C 25.3 °C 1015.1 hPa NNW 3.2 km/h 4.8 km/h 82 % 0 mm
19:03 28.7 °C 25.5 °C 1015.1 hPa NNW 3.2 km/h 4.8 km/h 83 % 0 mm
19:08 28.7 °C 25.5 °C 1015.1 hPa NNW 1.6 km/h 4.8 km/h 83 % 0 mm
19:13 28.7 °C 25.5 °C 1015.5 hPa WNW 1.6 km/h 4.8 km/h 83 % 0 mm
19:18 28.6 °C 25.6 °C 1015.5 hPa NNW 3.2 km/h 6.4 km/h 84 % 0 mm
19:23 28.4 °C 25.4 °C 1015.5 hPa NW 3.2 km/h 8 km/h 84 % 0 mm
19:28 28.3 °C 25.5 °C 1015.5 hPa West 1.6 km/h 11.3 km/h 85 % 0 mm
19:33 28.2 °C 25.6 °C 1015.5 hPa NW 4.8 km/h 11.3 km/h 86 % 0 mm
19:38 28.1 °C 25.5 °C 1015.5 hPa NW 4.8 km/h 11.3 km/h 86 % 0 mm
19:43 28.1 °C 25.5 °C 1015.8 hPa NNW 1.6 km/h 8 km/h 86 % 0 mm
19:48 28.1 °C 25.5 °C 1015.8 hPa WNW 1.6 km/h 8 km/h 86 % 0 mm
19:53 28.1 °C 25.7 °C 1015.8 hPa North 1.6 km/h 6.4 km/h 87 % 0 mm
19:58 28.1 °C 25.7 °C 1015.8 hPa NNW 3.2 km/h 6.4 km/h 87 % 0 mm
20:03 28 °C 25.6 °C 1015.8 hPa Calm   6.4 km/h 87 % 0 mm
20:08 27.9 °C 25.5 °C 1016.1 hPa Calm   4.8 km/h 87 % 0 mm
20:13 27.9 °C 25.5 °C 1016.1 hPa Calm   4.8 km/h 87 % 0 mm
20:18 27.9 °C 25.5 °C 1016.1 hPa NW 1.6 km/h 4.8 km/h 87 % 0 mm
20:23 27.8 °C 25.4 °C 1016.1 hPa NNW 1.6 km/h 4.8 km/h 87 % 0 mm
20:28 27.8 °C 25.4 °C 1016.1 hPa NW 1.6 km/h 4.8 km/h 87 % 0 mm
20:29 27.7 °C 25.3 °C 1016.1 hPa Calm   4.8 km/h 87 % 0 mm
20:34 27.7 °C 25.5 °C 1016.1 hPa Calm   4.8 km/h 88 % 0 mm
20:39 27.6 °C 25.4 °C 1016.1 hPa Calm   4.8 km/h 88 % 0 mm
20:44 27.6 °C 25.6 °C 1016.1 hPa Calm   3.2 km/h 89 % 0 mm
20:49 27.5 °C 25.5 °C 1016.1 hPa Calm   3.2 km/h 89 % 0 mm
20:54 27.4 °C 25.4 °C 1016.1 hPa Calm   3.2 km/h 89 % 0 mm
20:59 27.3 °C 25.1 °C 1016.1 hPa Calm   1.6 km/h 88 % 0 mm
21:04 27.2 °C 25 °C 1016.5 hPa East 1.6 km/h 4.8 km/h 88 % 0 mm
21:09 27.2 °C 25 °C 1016.5 hPa Calm   6.4 km/h 88 % 0 mm
21:14 27.2 °C 25 °C 1016.5 hPa East 1.6 km/h 6.4 km/h 88 % 0 mm
21:19 27.1 °C 24.9 °C 1016.5 hPa Calm   6.4 km/h 88 % 0 mm
21:24 27.1 °C 24.9 °C 1016.8 hPa Calm   4.8 km/h 88 % 0 mm
21:29 27 °C 24.8 °C 1016.8 hPa Calm   4.8 km/h 88 % 0 mm
21:34 26.9 °C 24.9 °C 1016.8 hPa ENE 3.2 km/h 3.2 km/h 89 % 0 mm
21:39 26.8 °C 24.8 °C 1016.8 hPa Calm   3.2 km/h 89 % 0 mm
21:44 26.8 °C 24.8 °C 1017.2 hPa Calm   4.8 km/h 89 % 0 mm
21:49 26.7 °C 24.7 °C 1017.2 hPa Calm   4.8 km/h 89 % 0 mm
21:54 26.6 °C 24.6 °C 1017.2 hPa Calm   4.8 km/h 89 % 0 mm
21:59 26.6 °C 24.6 °C 1017.2 hPa Calm   3.2 km/h 89 % 0 mm
22:04 26.5 °C 24.5 °C 1017.5 hPa Calm   3.2 km/h 89 % 0 mm
22:10 26.4 °C 24.4 °C 1017.5 hPa East 1.6 km/h 3.2 km/h 89 % 0 mm
22:15 26.3 °C 24.3 °C 1017.5 hPa Calm   1.6 km/h 89 % 0 mm
22:20 26.3 °C 24.3 °C 1017.5 hPa Calm   1.6 km/h 89 % 0 mm
22:25 26.3 °C 24.3 °C 1017.5 hPa Calm   1.6 km/h 89 % 0 mm
22:30 26.2 °C 24.2 °C 1017.8 hPa Calm   1.6 km/h 89 % 0 mm
22:35 26.2 °C 24.2 °C 1017.8 hPa Calm   1.6 km/h 89 % 0 mm
22:40 26.1 °C 24.3 °C 1017.8 hPa Calm     90 % 0 mm
22:45 26 °C 24.2 °C 1017.8 hPa Calm   1.6 km/h 90 % 0 mm
22:50 25.9 °C 24.1 °C 1017.8 hPa Calm   1.6 km/h 90 % 0 mm
22:55 25.9 °C 24.3 °C 1017.8 hPa Calm   1.6 km/h 91 % 0 mm
23:00 25.8 °C 24.2 °C 1018.2 hPa Calm   1.6 km/h 91 % 0 mm
23:05 25.8 °C 24.2 °C 1018.2 hPa Calm   1.6 km/h 91 % 0 mm
23:10 25.7 °C 24.1 °C 1018.2 hPa Calm     91 % 0 mm
23:16 25.7 °C 24.1 °C 1018.5 hPa Calm     91 % 0 mm
23:21 25.7 °C 24.1 °C 1018.5 hPa Calm     91 % 0 mm
23:26 25.6 °C 24 °C 1018.5 hPa Calm     91 % 0 mm
23:31 25.6 °C 24.2 °C 1018.5 hPa Calm     92 % 0 mm
23:36 25.6 °C 24.2 °C 1018.5 hPa Calm     92 % 0 mm
23:41 25.6 °C 24.2 °C 1018.5 hPa Calm     92 % 0 mm
23:46 25.5 °C 24.1 °C 1018.5 hPa Calm   1.6 km/h 92 % 0 mm
23:51 25.5 °C 24.3 °C 1018.8 hPa Calm   1.6 km/h 93 % 0 mm
23:56 25.5 °C 24.3 °C 1018.8 hPa Calm   1.6 km/h 93 % 0 mm
Spring, Texas: Villages of Bridgestone
Compliments of Weather Underground - 2.75 mb

Script developed by  Jim McMurry - jmcmurry@mwt.net Adapted for the template by  Wim van der Kuil - Leuven-Template.eu

You find our weather info also at:

UK Metoffice

WeatherCloud

Weather Underground

Mid-South Weather Network

AWEKAS

Citizen Weather Observer Program (CWOP)

HAMweather, WeatherForYou, PWS Weather

Equipment we use:

Weather-station
Davis Vantage Vue

Weather-program
Meteohub

Weather-server
Debian 7.9 x86 (Guest)

Provider
DreamHost

Davis Vantage Vue

Meteohub

Debian 7.9 x86 (Guest)

DreamHost